sensor_id;sensor_type;location;lat;lon;timestamp;P1;durP1;ratioP1;P2;durP2;ratioP2
33495;SDS011;19836;55.812;37.560;2022-07-12T00:02:12;3.03;;;1.55;;
33495;SDS011;19836;55.812;37.560;2022-07-12T00:04:38;1.98;;;1.42;;
33495;SDS011;19836;55.812;37.560;2022-07-12T00:07:04;1.85;;;1.50;;
33495;SDS011;19836;55.812;37.560;2022-07-12T00:09:33;3.83;;;1.60;;
33495;SDS011;19836;55.812;37.560;2022-07-12T00:11:59;1.65;;;1.50;;
33495;SDS011;19836;55.812;37.560;2022-07-12T00:14:25;1.45;;;1.35;;
33495;SDS011;19836;55.812;37.560;2022-07-12T00:16:51;1.88;;;1.67;;
33495;SDS011;19836;55.812;37.560;2022-07-12T00:19:17;1.60;;;1.50;;
33495;SDS011;19836;55.812;37.560;2022-07-12T00:21:43;2.03;;;1.50;;
33495;SDS011;19836;55.812;37.560;2022-07-12T00:24:09;1.65;;;1.50;;
33495;SDS011;19836;55.812;37.560;2022-07-12T00:26:35;2.30;;;1.90;;
33495;SDS011;19836;55.812;37.560;2022-07-12T00:29:01;1.95;;;1.63;;
33495;SDS011;19836;55.812;37.560;2022-07-12T00:31:29;2.22;;;1.58;;
33495;SDS011;19836;55.812;37.560;2022-07-12T00:33:55;3.38;;;1.98;;
33495;SDS011;19836;55.812;37.560;2022-07-12T00:36:21;4.22;;;2.17;;
33495;SDS011;19836;55.812;37.560;2022-07-12T00:38:47;1.70;;;1.60;;
33495;SDS011;19836;55.812;37.560;2022-07-12T00:41:13;1.73;;;1.60;;
33495;SDS011;19836;55.812;37.560;2022-07-12T00:43:38;3.58;;;1.80;;
33495;SDS011;19836;55.812;37.560;2022-07-12T00:46:04;1.83;;;1.73;;
33495;SDS011;19836;55.812;37.560;2022-07-12T00:48:33;6.05;;;1.75;;
33495;SDS011;19836;55.812;37.560;2022-07-12T00:51:03;1.83;;;1.70;;
33495;SDS011;19836;55.812;37.560;2022-07-12T00:53:29;2.85;;;2.30;;
33495;SDS011;19836;55.812;37.560;2022-07-12T00:55:55;2.47;;;2.00;;
33495;SDS011;19836;55.812;37.560;2022-07-12T00:58:23;1.80;;;1.70;;
33495;SDS011;19836;55.812;37.560;2022-07-12T01:00:49;1.80;;;1.70;;
33495;SDS011;19836;55.812;37.560;2022-07-12T01:03:16;2.28;;;1.77;;
33495;SDS011;19836;55.812;37.560;2022-07-12T01:05:41;2.85;;;1.70;;
33495;SDS011;19836;55.812;37.560;2022-07-12T01:08:07;2.08;;;1.88;;
33495;SDS011;19836;55.812;37.560;2022-07-12T01:10:34;2.00;;;1.80;;
33495;SDS011;19836;55.812;37.560;2022-07-12T01:13:03;2.10;;;1.80;;
33495;SDS011;19836;55.812;37.560;2022-07-12T01:15:28;1.95;;;1.45;;
33495;SDS011;19836;55.812;37.560;2022-07-12T01:17:55;4.32;;;1.70;;
33495;SDS011;19836;55.812;37.560;2022-07-12T01:20:22;1.98;;;1.75;;
33495;SDS011;19836;55.812;37.560;2022-07-12T01:22:55;2.00;;;1.83;;
33495;SDS011;19836;55.812;37.560;2022-07-12T01:25:25;3.05;;;1.80;;
33495;SDS011;19836;55.812;37.560;2022-07-12T01:27:52;3.05;;;2.13;;
33495;SDS011;19836;55.812;37.560;2022-07-12T01:30:18;1.75;;;1.65;;
33495;SDS011;19836;55.812;37.560;2022-07-12T01:32:45;2.85;;;1.75;;
33495;SDS011;19836;55.812;37.560;2022-07-12T01:35:11;2.83;;;2.00;;
33495;SDS011;19836;55.812;37.560;2022-07-12T01:37:39;2.33;;;2.10;;
33495;SDS011;19836;55.812;37.560;2022-07-12T01:40:08;2.78;;;2.10;;
33495;SDS011;19836;55.812;37.560;2022-07-12T01:42:36;3.20;;;2.13;;
33495;SDS011;19836;55.812;37.560;2022-07-12T01:45:03;4.68;;;2.30;;
33495;SDS011;19836;55.812;37.560;2022-07-12T01:47:30;3.75;;;2.17;;
33495;SDS011;19836;55.812;37.560;2022-07-12T01:49:56;6.03;;;2.40;;
33495;SDS011;19836;55.812;37.560;2022-07-12T01:52:23;3.75;;;2.70;;
33495;SDS011;19836;55.812;37.560;2022-07-12T01:54:49;3.17;;;2.60;;
33495;SDS011;19836;55.812;37.560;2022-07-12T01:57:16;4.32;;;2.53;;
33495;SDS011;19836;55.812;37.560;2022-07-12T01:59:42;2.65;;;2.10;;
33495;SDS011;19836;55.812;37.560;2022-07-12T02:02:08;3.50;;;2.40;;
33495;SDS011;19836;55.812;37.560;2022-07-12T02:04:34;2.60;;;2.40;;
33495;SDS011;19836;55.812;37.560;2022-07-12T02:07:01;2.72;;;2.53;;
33495;SDS011;19836;55.812;37.560;2022-07-12T02:09:27;3.63;;;2.30;;
33495;SDS011;19836;55.812;37.560;2022-07-12T02:11:53;4.10;;;2.50;;
33495;SDS011;19836;55.812;37.560;2022-07-12T02:14:19;3.03;;;2.63;;
33495;SDS011;19836;55.812;37.560;2022-07-12T02:16:46;2.40;;;2.20;;
33495;SDS011;19836;55.812;37.560;2022-07-12T02:19:12;2.60;;;2.35;;
33495;SDS011;19836;55.812;37.560;2022-07-12T02:21:40;3.33;;;2.63;;
33495;SDS011;19836;55.812;37.560;2022-07-12T02:24:06;3.50;;;2.80;;
33495;SDS011;19836;55.812;37.560;2022-07-12T02:26:34;2.65;;;2.45;;
33495;SDS011;19836;55.812;37.560;2022-07-12T02:29:01;3.55;;;2.83;;
33495;SDS011;19836;55.812;37.560;2022-07-12T02:31:31;4.60;;;2.88;;
33495;SDS011;19836;55.812;37.560;2022-07-12T02:33:57;3.58;;;2.60;;
33495;SDS011;19836;55.812;37.560;2022-07-12T02:36:23;4.82;;;3.05;;
33495;SDS011;19836;55.812;37.560;2022-07-12T02:38:49;4.72;;;3.20;;
33495;SDS011;19836;55.812;37.560;2022-07-12T02:41:15;5.43;;;3.05;;
33495;SDS011;19836;55.812;37.560;2022-07-12T02:43:41;3.95;;;2.90;;
33495;SDS011;19836;55.812;37.560;2022-07-12T02:46:08;3.30;;;3.00;;
33495;SDS011;19836;55.812;37.560;2022-07-12T02:48:35;3.80;;;2.95;;
33495;SDS011;19836;55.812;37.560;2022-07-12T02:51:02;4.88;;;2.70;;
33495;SDS011;19836;55.812;37.560;2022-07-12T02:53:29;2.88;;;2.67;;
33495;SDS011;19836;55.812;37.560;2022-07-12T02:55:55;4.65;;;2.80;;
33495;SDS011;19836;55.812;37.560;2022-07-12T02:58:21;3.75;;;2.70;;
33495;SDS011;19836;55.812;37.560;2022-07-12T03:00:47;4.40;;;2.83;;
33495;SDS011;19836;55.812;37.560;2022-07-12T03:03:13;4.32;;;2.65;;
33495;SDS011;19836;55.812;37.560;2022-07-12T03:05:40;5.22;;;2.88;;
33495;SDS011;19836;55.812;37.560;2022-07-12T03:08:07;4.05;;;2.42;;
33495;SDS011;19836;55.812;37.560;2022-07-12T03:10:35;2.80;;;2.55;;
33495;SDS011;19836;55.812;37.560;2022-07-12T03:13:01;2.95;;;2.42;;
33495;SDS011;19836;55.812;37.560;2022-07-12T03:15:28;4.18;;;2.72;;
33495;SDS011;19836;55.812;37.560;2022-07-12T03:17:55;2.70;;;2.33;;
33495;SDS011;19836;55.812;37.560;2022-07-12T03:20:21;3.00;;;2.70;;
33495;SDS011;19836;55.812;37.560;2022-07-12T03:22:47;2.85;;;2.58;;
33495;SDS011;19836;55.812;37.560;2022-07-12T03:25:15;2.90;;;2.60;;
33495;SDS011;19836;55.812;37.560;2022-07-12T03:27:41;3.55;;;2.50;;
33495;SDS011;19836;55.812;37.560;2022-07-12T03:30:07;3.20;;;2.90;;
33495;SDS011;19836;55.812;37.560;2022-07-12T03:32:34;4.97;;;2.70;;
33495;SDS011;19836;55.812;37.560;2022-07-12T03:35:00;4.57;;;2.97;;
33495;SDS011;19836;55.812;37.560;2022-07-12T03:37:40;2.90;;;2.60;;
33495;SDS011;19836;55.812;37.560;2022-07-12T03:40:06;3.38;;;3.08;;
33495;SDS011;19836;55.812;37.560;2022-07-12T03:42:32;4.75;;;2.63;;
33495;SDS011;19836;55.812;37.560;2022-07-12T03:44:58;4.38;;;2.70;;
33495;SDS011;19836;55.812;37.560;2022-07-12T03:47:24;3.67;;;2.65;;
33495;SDS011;19836;55.812;37.560;2022-07-12T03:49:50;3.53;;;3.20;;
33495;SDS011;19836;55.812;37.560;2022-07-12T03:52:15;6.18;;;3.13;;
33495;SDS011;19836;55.812;37.560;2022-07-12T03:54:41;3.60;;;3.13;;
33495;SDS011;19836;55.812;37.560;2022-07-12T03:57:07;4.22;;;3.10;;
33495;SDS011;19836;55.812;37.560;2022-07-12T03:59:42;4.03;;;3.10;;
33495;SDS011;19836;55.812;37.560;2022-07-12T04:02:09;3.70;;;3.40;;
33495;SDS011;19836;55.812;37.560;2022-07-12T04:04:36;5.47;;;2.90;;
33495;SDS011;19836;55.812;37.560;2022-07-12T04:07:02;6.47;;;3.20;;
33495;SDS011;19836;55.812;37.560;2022-07-12T04:09:28;5.10;;;3.38;;
33495;SDS011;19836;55.812;37.560;2022-07-12T04:11:54;4.13;;;2.80;;
33495;SDS011;19836;55.812;37.560;2022-07-12T04:14:20;5.88;;;3.70;;
33495;SDS011;19836;55.812;37.560;2022-07-12T04:16:46;3.85;;;3.30;;
33495;SDS011;19836;55.812;37.560;2022-07-12T04:19:12;4.13;;;3.38;;
33495;SDS011;19836;55.812;37.560;2022-07-12T04:21:38;4.22;;;3.30;;
33495;SDS011;19836;55.812;37.560;2022-07-12T04:24:04;7.70;;;3.90;;
33495;SDS011;19836;55.812;37.560;2022-07-12T04:26:31;6.82;;;3.25;;
33495;SDS011;19836;55.812;37.560;2022-07-12T04:28:57;3.95;;;3.30;;
33495;SDS011;19836;55.812;37.560;2022-07-12T04:31:23;4.85;;;3.50;;
33495;SDS011;19836;55.812;37.560;2022-07-12T04:33:49;4.32;;;3.55;;
33495;SDS011;19836;55.812;37.560;2022-07-12T04:36:16;4.80;;;3.13;;
33495;SDS011;19836;55.812;37.560;2022-07-12T04:38:42;3.50;;;3.20;;
33495;SDS011;19836;55.812;37.560;2022-07-12T04:41:08;3.75;;;3.20;;
33495;SDS011;19836;55.812;37.560;2022-07-12T04:43:34;4.63;;;3.50;;
33495;SDS011;19836;55.812;37.560;2022-07-12T04:46:07;5.25;;;3.28;;
33495;SDS011;19836;55.812;37.560;2022-07-12T04:48:39;4.75;;;3.30;;
33495;SDS011;19836;55.812;37.560;2022-07-12T04:51:05;5.32;;;3.30;;
33495;SDS011;19836;55.812;37.560;2022-07-12T04:53:31;4.05;;;3.30;;
33495;SDS011;19836;55.812;37.560;2022-07-12T04:55:57;7.28;;;3.53;;
33495;SDS011;19836;55.812;37.560;2022-07-12T04:58:23;6.18;;;2.97;;
33495;SDS011;19836;55.812;37.560;2022-07-12T05:00:49;3.50;;;3.20;;
33495;SDS011;19836;55.812;37.560;2022-07-12T05:03:16;3.35;;;3.05;;
33495;SDS011;19836;55.812;37.560;2022-07-12T05:05:42;5.00;;;3.35;;
33495;SDS011;19836;55.812;37.560;2022-07-12T05:08:08;5.15;;;3.50;;
33495;SDS011;19836;55.812;37.560;2022-07-12T05:10:34;5.38;;;3.00;;
33495;SDS011;19836;55.812;37.560;2022-07-12T05:13:00;10.50;;;3.50;;
33495;SDS011;19836;55.812;37.560;2022-07-12T05:15:25;13.63;;;3.72;;
33495;SDS011;19836;55.812;37.560;2022-07-12T05:17:51;6.35;;;3.20;;
33495;SDS011;19836;55.812;37.560;2022-07-12T05:20:18;3.75;;;2.90;;
33495;SDS011;19836;55.812;37.560;2022-07-12T05:22:44;25.13;;;4.20;;
33495;SDS011;19836;55.812;37.560;2022-07-12T05:25:11;9.13;;;3.75;;
33495;SDS011;19836;55.812;37.560;2022-07-12T05:27:37;6.38;;;3.25;;
33495;SDS011;19836;55.812;37.560;2022-07-12T05:30:03;4.45;;;3.20;;
33495;SDS011;19836;55.812;37.560;2022-07-12T05:32:30;6.85;;;3.53;;
33495;SDS011;19836;55.812;37.560;2022-07-12T05:34:56;6.78;;;2.92;;
33495;SDS011;19836;55.812;37.560;2022-07-12T05:37:23;7.03;;;3.53;;
33495;SDS011;19836;55.812;37.560;2022-07-12T05:39:53;11.13;;;7.25;;
33495;SDS011;19836;55.812;37.560;2022-07-12T05:42:19;9.32;;;3.58;;
33495;SDS011;19836;55.812;37.560;2022-07-12T05:44:45;6.22;;;3.88;;
33495;SDS011;19836;55.812;37.560;2022-07-12T05:47:10;10.60;;;7.68;;
33495;SDS011;19836;55.812;37.560;2022-07-12T05:49:36;7.57;;;5.45;;
33495;SDS011;19836;55.812;37.560;2022-07-12T05:52:02;7.68;;;3.80;;
33495;SDS011;19836;55.812;37.560;2022-07-12T05:54:47;7.40;;;4.43;;
33495;SDS011;19836;55.812;37.560;2022-07-12T05:57:14;5.68;;;4.00;;
33495;SDS011;19836;55.812;37.560;2022-07-12T05:59:41;6.43;;;4.22;;
33495;SDS011;19836;55.812;37.560;2022-07-12T06:02:07;4.93;;;3.97;;
33495;SDS011;19836;55.812;37.560;2022-07-12T06:04:33;5.45;;;3.53;;
33495;SDS011;19836;55.812;37.560;2022-07-12T06:06:59;8.27;;;3.42;;
33495;SDS011;19836;55.812;37.560;2022-07-12T06:09:25;9.15;;;5.72;;
33495;SDS011;19836;55.812;37.560;2022-07-12T06:11:50;5.78;;;3.83;;
33495;SDS011;19836;55.812;37.560;2022-07-12T06:14:16;5.30;;;3.50;;
33495;SDS011;19836;55.812;37.560;2022-07-12T06:16:43;7.15;;;5.38;;
33495;SDS011;19836;55.812;37.560;2022-07-12T06:19:09;4.60;;;4.10;;
33495;SDS011;19836;55.812;37.560;2022-07-12T06:21:35;7.20;;;3.40;;
33495;SDS011;19836;55.812;37.560;2022-07-12T06:24:00;5.97;;;4.05;;
33495;SDS011;19836;55.812;37.560;2022-07-12T06:26:26;4.18;;;3.25;;
33495;SDS011;19836;55.812;37.560;2022-07-12T06:28:53;5.30;;;3.33;;
33495;SDS011;19836;55.812;37.560;2022-07-12T06:31:19;6.75;;;2.97;;
33495;SDS011;19836;55.812;37.560;2022-07-12T06:33:44;7.90;;;3.08;;
33495;SDS011;19836;55.812;37.560;2022-07-12T06:36:10;6.03;;;3.55;;
33495;SDS011;19836;55.812;37.560;2022-07-12T06:38:37;7.10;;;3.30;;
33495;SDS011;19836;55.812;37.560;2022-07-12T06:41:04;8.65;;;3.60;;
33495;SDS011;19836;55.812;37.560;2022-07-12T06:43:30;8.85;;;3.28;;
33495;SDS011;19836;55.812;37.560;2022-07-12T06:45:56;4.70;;;3.45;;
33495;SDS011;19836;55.812;37.560;2022-07-12T06:48:22;7.05;;;3.13;;
33495;SDS011;19836;55.812;37.560;2022-07-12T06:50:48;8.30;;;3.97;;
33495;SDS011;19836;55.812;37.560;2022-07-12T06:53:14;5.85;;;3.53;;
33495;SDS011;19836;55.812;37.560;2022-07-12T06:55:42;7.07;;;3.70;;
33495;SDS011;19836;55.812;37.560;2022-07-12T06:58:08;8.73;;;3.90;;
33495;SDS011;19836;55.812;37.560;2022-07-12T07:00:34;6.53;;;3.72;;
33495;SDS011;19836;55.812;37.560;2022-07-12T07:03:00;6.32;;;3.88;;
33495;SDS011;19836;55.812;37.560;2022-07-12T07:05:26;5.15;;;4.20;;
33495;SDS011;19836;55.812;37.560;2022-07-12T07:07:51;6.13;;;3.95;;
33495;SDS011;19836;55.812;37.560;2022-07-12T07:10:17;5.43;;;3.70;;
33495;SDS011;19836;55.812;37.560;2022-07-12T07:12:43;4.80;;;3.80;;
33495;SDS011;19836;55.812;37.560;2022-07-12T07:15:09;5.05;;;3.50;;
33495;SDS011;19836;55.812;37.560;2022-07-12T07:17:35;8.52;;;3.83;;
33495;SDS011;19836;55.812;37.560;2022-07-12T07:20:01;6.90;;;4.85;;
33495;SDS011;19836;55.812;37.560;2022-07-12T07:22:28;15.27;;;12.65;;
33495;SDS011;19836;55.812;37.560;2022-07-12T07:24:54;6.13;;;4.43;;
33495;SDS011;19836;55.812;37.560;2022-07-12T07:27:20;10.43;;;9.32;;
33495;SDS011;19836;55.812;37.560;2022-07-12T07:29:46;10.23;;;5.40;;
33495;SDS011;19836;55.812;37.560;2022-07-12T07:32:30;9.27;;;5.30;;
33495;SDS011;19836;55.812;37.560;2022-07-12T07:34:56;13.55;;;11.15;;
33495;SDS011;19836;55.812;37.560;2022-07-12T07:37:22;9.02;;;4.93;;
33495;SDS011;19836;55.812;37.560;2022-07-12T07:39:49;8.30;;;4.10;;
33495;SDS011;19836;55.812;37.560;2022-07-12T07:42:16;8.82;;;6.63;;
33495;SDS011;19836;55.812;37.560;2022-07-12T07:44:42;8.20;;;4.13;;
33495;SDS011;19836;55.812;37.560;2022-07-12T07:47:08;11.43;;;7.75;;
33495;SDS011;19836;55.812;37.560;2022-07-12T07:49:34;5.53;;;4.45;;
33495;SDS011;19836;55.812;37.560;2022-07-12T07:52:00;5.45;;;4.30;;
33495;SDS011;19836;55.812;37.560;2022-07-12T07:54:27;6.63;;;3.60;;
33495;SDS011;19836;55.812;37.560;2022-07-12T07:56:53;4.00;;;3.60;;
33495;SDS011;19836;55.812;37.560;2022-07-12T07:59:19;6.20;;;3.60;;
33495;SDS011;19836;55.812;37.560;2022-07-12T08:01:44;8.73;;;3.67;;
33495;SDS011;19836;55.812;37.560;2022-07-12T08:04:11;4.13;;;3.22;;
33495;SDS011;19836;55.812;37.560;2022-07-12T08:06:38;6.40;;;3.65;;
33495;SDS011;19836;55.812;37.560;2022-07-12T08:09:07;6.47;;;4.00;;
33495;SDS011;19836;55.812;37.560;2022-07-12T08:11:34;6.32;;;3.80;;
33495;SDS011;19836;55.812;37.560;2022-07-12T08:14:00;6.63;;;3.90;;
33495;SDS011;19836;55.812;37.560;2022-07-12T08:16:27;7.25;;;3.97;;
33495;SDS011;19836;55.812;37.560;2022-07-12T08:18:53;7.53;;;3.97;;
33495;SDS011;19836;55.812;37.560;2022-07-12T08:21:19;4.25;;;3.22;;
33495;SDS011;19836;55.812;37.560;2022-07-12T08:23:45;6.22;;;3.95;;
33495;SDS011;19836;55.812;37.560;2022-07-12T08:26:11;5.50;;;3.28;;
33495;SDS011;19836;55.812;37.560;2022-07-12T08:28:37;9.00;;;3.22;;
33495;SDS011;19836;55.812;37.560;2022-07-12T08:31:03;7.93;;;3.00;;
33495;SDS011;19836;55.812;37.560;2022-07-12T08:33:29;3.72;;;3.10;;
33495;SDS011;19836;55.812;37.560;2022-07-12T08:35:55;5.88;;;3.85;;
33495;SDS011;19836;55.812;37.560;2022-07-12T08:38:20;5.90;;;2.95;;
33495;SDS011;19836;55.812;37.560;2022-07-12T08:40:47;5.78;;;3.03;;
33495;SDS011;19836;55.812;37.560;2022-07-12T08:43:13;3.72;;;2.83;;
33495;SDS011;19836;55.812;37.560;2022-07-12T08:45:39;4.82;;;2.72;;
33495;SDS011;19836;55.812;37.560;2022-07-12T08:48:08;6.05;;;4.18;;
33495;SDS011;19836;55.812;37.560;2022-07-12T08:50:34;4.95;;;3.20;;
33495;SDS011;19836;55.812;37.560;2022-07-12T08:53:00;4.03;;;2.83;;
33495;SDS011;19836;55.812;37.560;2022-07-12T08:57:57;6.80;;;3.30;;
33495;SDS011;19836;55.812;37.560;2022-07-12T09:00:26;3.28;;;2.97;;
33495;SDS011;19836;55.812;37.560;2022-07-12T09:02:54;4.38;;;3.30;;
33495;SDS011;19836;55.812;37.560;2022-07-12T09:05:28;4.22;;;2.70;;
33495;SDS011;19836;55.812;37.560;2022-07-12T09:13:16;5.35;;;2.80;;
33495;SDS011;19836;55.812;37.560;2022-07-12T09:15:42;3.15;;;2.70;;
33495;SDS011;19836;55.812;37.560;2022-07-12T09:18:08;6.70;;;5.97;;
33495;SDS011;19836;55.812;37.560;2022-07-12T09:20:49;10.25;;;7.50;;
33495;SDS011;19836;55.812;37.560;2022-07-12T09:23:16;6.07;;;4.70;;
33495;SDS011;19836;55.812;37.560;2022-07-12T09:25:46;4.80;;;2.50;;
33495;SDS011;19836;55.812;37.560;2022-07-12T09:28:13;5.15;;;3.30;;
33495;SDS011;19836;55.812;37.560;2022-07-12T09:30:52;17.70;;;15.85;;
33495;SDS011;19836;55.812;37.560;2022-07-12T09:33:19;6.25;;;2.55;;
33495;SDS011;19836;55.812;37.560;2022-07-12T09:36:05;4.25;;;2.45;;
33495;SDS011;19836;55.812;37.560;2022-07-12T09:38:53;6.18;;;4.32;;
33495;SDS011;19836;55.812;37.560;2022-07-12T09:41:22;3.50;;;2.50;;
33495;SDS011;19836;55.812;37.560;2022-07-12T09:43:49;3.37;;;2.23;;
33495;SDS011;19836;55.812;37.560;2022-07-12T09:46:16;5.35;;;2.50;;
33495;SDS011;19836;55.812;37.560;2022-07-12T09:48:43;3.45;;;2.85;;
33495;SDS011;19836;55.812;37.560;2022-07-12T09:51:16;2.55;;;2.35;;
33495;SDS011;19836;55.812;37.560;2022-07-12T09:56:11;4.38;;;2.80;;
33495;SDS011;19836;55.812;37.560;2022-07-12T09:58:57;2.80;;;2.38;;
33495;SDS011;19836;55.812;37.560;2022-07-12T10:01:25;3.53;;;3.10;;
33495;SDS011;19836;55.812;37.560;2022-07-12T10:03:51;4.20;;;2.60;;
33495;SDS011;19836;55.812;37.560;2022-07-12T10:06:24;2.55;;;1.98;;
33495;SDS011;19836;55.812;37.560;2022-07-12T10:08:54;3.20;;;2.17;;
33495;SDS011;19836;55.812;37.560;2022-07-12T10:11:21;3.67;;;2.28;;
33495;SDS011;19836;55.812;37.560;2022-07-12T10:13:48;3.58;;;2.30;;
33495;SDS011;19836;55.812;37.560;2022-07-12T10:16:15;3.63;;;2.50;;
33495;SDS011;19836;55.812;37.560;2022-07-12T10:22:01;4.85;;;2.40;;
33495;SDS011;19836;55.812;37.560;2022-07-12T10:27:43;4.43;;;2.35;;
33495;SDS011;19836;55.812;37.560;2022-07-12T10:29:47;5.68;;;2.25;;
33495;SDS011;19836;55.812;37.560;2022-07-12T10:32:33;4.13;;;2.70;;
33495;SDS011;19836;55.812;37.560;2022-07-12T10:35:00;5.93;;;2.05;;
33495;SDS011;19836;55.812;37.560;2022-07-12T10:37:29;3.58;;;1.90;;
33495;SDS011;19836;55.812;37.560;2022-07-12T10:43:25;3.47;;;1.70;;
33495;SDS011;19836;55.812;37.560;2022-07-12T10:45:39;3.80;;;1.60;;
33495;SDS011;19836;55.812;37.560;2022-07-12T10:53:52;4.72;;;1.70;;
33495;SDS011;19836;55.812;37.560;2022-07-12T11:01:09;2.20;;;0.70;;
33495;SDS011;19836;55.812;37.560;2022-07-12T11:03:46;2.17;;;0.60;;
33495;SDS011;19836;55.812;37.560;2022-07-12T11:06:19;3.15;;;0.60;;
33495;SDS011;19836;55.812;37.560;2022-07-12T11:08:53;1.77;;;0.50;;
33495;SDS011;19836;55.812;37.560;2022-07-12T11:11:34;5.85;;;0.85;;
33495;SDS011;19836;55.812;37.560;2022-07-12T11:14:06;2.90;;;0.57;;
33495;SDS011;19836;55.812;37.560;2022-07-12T11:16:32;2.42;;;1.02;;
33495;SDS011;19836;55.812;37.560;2022-07-12T11:18:58;1.98;;;0.95;;
33495;SDS011;19836;55.812;37.560;2022-07-12T11:21:24;1.02;;;0.80;;
33495;SDS011;19836;55.812;37.560;2022-07-12T11:23:51;1.45;;;0.60;;
33495;SDS011;19836;55.812;37.560;2022-07-12T11:26:17;1.45;;;0.60;;
33495;SDS011;19836;55.812;37.560;2022-07-12T11:28:44;1.27;;;0.50;;
33495;SDS011;19836;55.812;37.560;2022-07-12T11:31:14;1.38;;;0.43;;
33495;SDS011;19836;55.812;37.560;2022-07-12T11:33:42;1.25;;;0.50;;
33495;SDS011;19836;55.812;37.560;2022-07-12T11:36:10;1.95;;;0.57;;
33495;SDS011;19836;55.812;37.560;2022-07-12T11:38:38;1.67;;;0.40;;
33495;SDS011;19836;55.812;37.560;2022-07-12T11:41:06;0.80;;;0.65;;
33495;SDS011;19836;55.812;37.560;2022-07-12T11:43:34;1.63;;;1.48;;
33495;SDS011;19836;55.812;37.560;2022-07-12T11:46:02;0.90;;;0.63;;
33495;SDS011;19836;55.812;37.560;2022-07-12T11:48:29;1.75;;;0.60;;
33495;SDS011;19836;55.812;37.560;2022-07-12T11:51:02;2.80;;;0.90;;
33495;SDS011;19836;55.812;37.560;2022-07-12T11:53:31;1.20;;;0.45;;
33495;SDS011;19836;55.812;37.560;2022-07-12T11:56:00;1.73;;;0.90;;
33495;SDS011;19836;55.812;37.560;2022-07-12T11:58:27;1.05;;;0.60;;
33495;SDS011;19836;55.812;37.560;2022-07-12T12:00:54;1.95;;;0.85;;
33495;SDS011;19836;55.812;37.560;2022-07-12T12:03:21;2.00;;;1.02;;
33495;SDS011;19836;55.812;37.560;2022-07-12T12:05:52;3.55;;;2.00;;
33495;SDS011;19836;55.812;37.560;2022-07-12T12:08:19;3.72;;;0.70;;
33495;SDS011;19836;55.812;37.560;2022-07-12T12:10:56;1.55;;;0.63;;
33495;SDS011;19836;55.812;37.560;2022-07-12T12:13:24;1.60;;;0.88;;
33495;SDS011;19836;55.812;37.560;2022-07-12T12:15:55;3.28;;;1.30;;
33495;SDS011;19836;55.812;37.560;2022-07-12T12:20:59;3.17;;;0.60;;
33495;SDS011;19836;55.812;37.560;2022-07-12T12:23:26;1.38;;;0.82;;
33495;SDS011;19836;55.812;37.560;2022-07-12T12:25:52;1.15;;;0.60;;
33495;SDS011;19836;55.812;37.560;2022-07-12T12:28:43;2.40;;;0.70;;
33495;SDS011;19836;55.812;37.560;2022-07-12T12:31:13;1.92;;;0.98;;
33495;SDS011;19836;55.812;37.560;2022-07-12T12:33:49;2.88;;;1.83;;
33495;SDS011;19836;55.812;37.560;2022-07-12T12:38:55;1.13;;;0.82;;
33495;SDS011;19836;55.812;37.560;2022-07-12T12:41:22;1.65;;;0.60;;
33495;SDS011;19836;55.812;37.560;2022-07-12T12:43:56;2.42;;;0.70;;
33495;SDS011;19836;55.812;37.560;2022-07-12T12:52:12;3.00;;;0.52;;
33495;SDS011;19836;55.812;37.560;2022-07-12T12:54:38;1.70;;;0.90;;
33495;SDS011;19836;55.812;37.560;2022-07-12T12:57:04;1.33;;;0.47;;
33495;SDS011;19836;55.812;37.560;2022-07-12T12:59:31;1.90;;;0.60;;
33495;SDS011;19836;55.812;37.560;2022-07-12T13:01:58;3.67;;;0.73;;
33495;SDS011;19836;55.812;37.560;2022-07-12T13:04:28;2.28;;;0.90;;
33495;SDS011;19836;55.812;37.560;2022-07-12T13:06:58;2.03;;;0.70;;
33495;SDS011;19836;55.812;37.560;2022-07-12T13:09:24;2.13;;;0.90;;
33495;SDS011;19836;55.812;37.560;2022-07-12T13:11:51;2.55;;;0.90;;
33495;SDS011;19836;55.812;37.560;2022-07-12T13:14:17;2.65;;;0.90;;
33495;SDS011;19836;55.812;37.560;2022-07-12T13:16:43;4.07;;;0.93;;
33495;SDS011;19836;55.812;37.560;2022-07-12T13:19:08;3.20;;;0.90;;
33495;SDS011;19836;55.812;37.560;2022-07-12T13:21:34;3.53;;;1.00;;
33495;SDS011;19836;55.812;37.560;2022-07-12T13:24:00;1.50;;;0.80;;
33495;SDS011;19836;55.812;37.560;2022-07-12T13:26:26;1.48;;;0.80;;
33495;SDS011;19836;55.812;37.560;2022-07-12T13:28:53;0.80;;;0.70;;
33495;SDS011;19836;55.812;37.560;2022-07-12T13:31:19;2.08;;;0.90;;
33495;SDS011;19836;55.812;37.560;2022-07-12T13:33:46;2.17;;;0.82;;
33495;SDS011;19836;55.812;37.560;2022-07-12T13:36:12;1.23;;;1.00;;
33495;SDS011;19836;55.812;37.560;2022-07-12T13:38:38;2.28;;;0.80;;
33495;SDS011;19836;55.812;37.560;2022-07-12T13:41:05;1.88;;;0.80;;
33495;SDS011;19836;55.812;37.560;2022-07-12T13:43:31;2.65;;;1.00;;
33495;SDS011;19836;55.812;37.560;2022-07-12T13:45:57;4.63;;;0.80;;
33495;SDS011;19836;55.812;37.560;2022-07-12T13:48:23;0.77;;;0.75;;
33495;SDS011;19836;55.812;37.560;2022-07-12T13:50:49;1.55;;;0.80;;
33495;SDS011;19836;55.812;37.560;2022-07-12T13:53:15;1.70;;;0.70;;
33495;SDS011;19836;55.812;37.560;2022-07-12T13:55:42;0.77;;;0.70;;
33495;SDS011;19836;55.812;37.560;2022-07-12T13:58:08;0.90;;;0.68;;
33495;SDS011;19836;55.812;37.560;2022-07-12T14:00:35;1.23;;;0.85;;
33495;SDS011;19836;55.812;37.560;2022-07-12T14:03:01;1.45;;;0.55;;
33495;SDS011;19836;55.812;37.560;2022-07-12T14:05:27;1.55;;;0.50;;
33495;SDS011;19836;55.812;37.560;2022-07-12T14:07:53;0.75;;;0.60;;
33495;SDS011;19836;55.812;37.560;2022-07-12T14:10:19;0.88;;;0.50;;
33495;SDS011;19836;55.812;37.560;2022-07-12T14:12:46;3.10;;;1.00;;
33495;SDS011;19836;55.812;37.560;2022-07-12T14:15:12;1.88;;;0.80;;
33495;SDS011;19836;55.812;37.560;2022-07-12T14:20:06;2.47;;;0.80;;
33495;SDS011;19836;55.812;37.560;2022-07-12T14:22:35;1.55;;;0.60;;
33495;SDS011;19836;55.812;37.560;2022-07-12T14:25:02;1.23;;;0.60;;
33495;SDS011;19836;55.812;37.560;2022-07-12T14:27:30;0.82;;;0.75;;
33495;SDS011;19836;55.812;37.560;2022-07-12T14:29:59;2.35;;;0.85;;
33495;SDS011;19836;55.812;37.560;2022-07-12T14:32:25;1.38;;;1.00;;
33495;SDS011;19836;55.812;37.560;2022-07-12T14:34:51;2.47;;;0.90;;
33495;SDS011;19836;55.812;37.560;2022-07-12T14:37:17;1.10;;;0.70;;
33495;SDS011;19836;55.812;37.560;2022-07-12T14:39:43;0.73;;;0.63;;
33495;SDS011;19836;55.812;37.560;2022-07-12T14:42:09;1.30;;;0.80;;
33495;SDS011;19836;55.812;37.560;2022-07-12T14:44:35;2.67;;;0.77;;
33495;SDS011;19836;55.812;37.560;2022-07-12T14:47:02;1.17;;;0.80;;
33495;SDS011;19836;55.812;37.560;2022-07-12T14:49:29;1.40;;;0.90;;
33495;SDS011;19836;55.812;37.560;2022-07-12T14:51:56;1.38;;;0.70;;
33495;SDS011;19836;55.812;37.560;2022-07-12T14:54:22;2.75;;;0.90;;
33495;SDS011;19836;55.812;37.560;2022-07-12T14:56:49;1.80;;;0.90;;
33495;SDS011;19836;55.812;37.560;2022-07-12T14:59:15;1.15;;;0.90;;
33495;SDS011;19836;55.812;37.560;2022-07-12T15:01:41;1.45;;;1.02;;
33495;SDS011;19836;55.812;37.560;2022-07-12T15:04:07;1.45;;;0.90;;
33495;SDS011;19836;55.812;37.560;2022-07-12T15:06:33;1.30;;;1.00;;
33495;SDS011;19836;55.812;37.560;2022-07-12T15:08:59;1.45;;;0.90;;
33495;SDS011;19836;55.812;37.560;2022-07-12T15:11:26;1.00;;;0.90;;
33495;SDS011;19836;55.812;37.560;2022-07-12T15:13:52;3.05;;;1.17;;
33495;SDS011;19836;55.812;37.560;2022-07-12T15:16:17;2.17;;;0.85;;
33495;SDS011;19836;55.812;37.560;2022-07-12T15:18:43;2.05;;;0.90;;